createdAt,value
2023-10-29T00:01:29.638Z,6.07
2023-10-29T00:03:57.026Z,7.78
2023-10-29T00:06:24.085Z,7.30
2023-10-29T00:08:50.587Z,7.53
2023-10-29T00:11:17.190Z,10.07
2023-10-29T00:13:44.319Z,7.43
2023-10-29T00:16:12.529Z,9.45
2023-10-29T00:18:39.429Z,8.82
2023-10-29T00:21:06.716Z,8.15
2023-10-29T00:23:33.938Z,9.13
2023-10-29T00:26:00.652Z,6.43
2023-10-29T00:28:27.125Z,10.30
2023-10-29T00:30:56.715Z,8.13
2023-10-29T00:33:24.400Z,8.13
2023-10-29T00:35:51.529Z,9.60
2023-10-29T00:38:18.044Z,10.40
2023-10-29T00:40:44.668Z,11.50
2023-10-29T00:43:15.506Z,8.57
2023-10-29T00:45:43.189Z,8.98
2023-10-29T00:48:11.640Z,9.80
2023-10-29T00:50:39.278Z,10.05
2023-10-29T00:53:06.516Z,7.15
2023-10-29T00:55:33.312Z,8.32
2023-10-29T00:57:59.888Z,8.13
2023-10-29T01:00:26.377Z,8.68
2023-10-29T01:02:53.033Z,6.88
2023-10-29T01:05:19.670Z,8.60
2023-10-29T01:07:46.926Z,7.93
2023-10-29T01:10:13.554Z,9.98
2023-10-29T01:12:40.192Z,8.23
2023-10-29T01:15:07.178Z,9.25
2023-10-29T01:17:33.809Z,7.45
2023-10-29T01:20:00.389Z,9.20
2023-10-29T01:22:27.088Z,6.72
2023-10-29T01:24:55.198Z,5.20
2023-10-29T01:27:22.794Z,6.70
2023-10-29T01:29:49.490Z,7.90
2023-10-29T01:32:16.007Z,7.10
2023-10-29T01:34:42.698Z,7.80
2023-10-29T01:37:09.228Z,6.47
2023-10-29T01:39:35.705Z,6.88
2023-10-29T01:42:02.320Z,8.60
2023-10-29T01:44:28.855Z,7.25
2023-10-29T01:46:55.405Z,10.77
2023-10-29T01:49:21.895Z,6.43
2023-10-29T01:51:48.404Z,7.25
2023-10-29T01:54:14.885Z,9.30
2023-10-29T01:56:41.535Z,8.32
2023-10-29T01:59:08.112Z,11.15
2023-10-29T02:01:34.647Z,10.90
2023-10-29T02:04:01.310Z,12.23
2023-10-29T02:06:27.870Z,15.20
2023-10-29T02:08:55.036Z,9.98
2023-10-29T02:11:21.539Z,11.98
2023-10-29T02:13:48.038Z,12.77
2023-10-29T02:16:14.514Z,11.88
2023-10-29T02:18:40.973Z,12.02
2023-10-29T02:21:07.982Z,12.32
2023-10-29T02:23:35.524Z,16.10
2023-10-29T02:26:02.110Z,14.90
2023-10-29T02:28:28.847Z,13.43
2023-10-29T02:30:55.415Z,14.88
2023-10-29T02:33:21.973Z,16.45
2023-10-29T02:35:48.790Z,12.75
2023-10-29T02:38:15.941Z,18.02
2023-10-29T02:40:42.507Z,16.83
2023-10-29T02:43:08.968Z,17.95
2023-10-29T02:45:35.460Z,16.33
2023-10-29T02:48:02.026Z,13.45
2023-10-29T02:50:28.642Z,11.05
2023-10-29T02:52:55.144Z,12.40
2023-10-29T02:55:21.794Z,14.60
2023-10-29T02:57:48.273Z,12.95
2023-10-29T03:00:15.279Z,12.75
2023-10-29T03:02:41.904Z,13.55
2023-10-29T03:05:11.805Z,14.60
2023-10-29T03:07:38.545Z,12.07
2023-10-29T03:10:08.187Z,10.85
2023-10-29T03:12:34.639Z,10.32
2023-10-29T03:15:01.865Z,10.45
2023-10-29T03:17:28.543Z,10.20
2023-10-29T03:19:55.097Z,10.55
2023-10-29T03:22:21.714Z,9.30
2023-10-29T03:24:48.541Z,13.20
2023-10-29T03:27:15.394Z,10.05
2023-10-29T03:29:42.073Z,11.68
2023-10-29T03:32:08.661Z,12.98
2023-10-29T03:34:35.169Z,12.05
2023-10-29T03:37:01.741Z,10.10
2023-10-29T03:39:30.779Z,11.90
2023-10-29T03:41:57.516Z,11.30
2023-10-29T03:44:24.249Z,12.30
2023-10-29T03:46:52.635Z,12.40
2023-10-29T03:49:20.073Z,13.15
2023-10-29T03:51:48.247Z,13.93
2023-10-29T03:54:14.853Z,14.73
2023-10-29T03:56:41.626Z,18.27
2023-10-29T03:59:08.206Z,15.20
2023-10-29T04:01:34.836Z,17.42
2023-10-29T04:04:03.627Z,18.83
2023-10-29T04:06:31.573Z,20.33
2023-10-29T04:08:58.045Z,16.75
2023-10-29T04:11:24.569Z,18.98
2023-10-29T04:13:51.063Z,19.55
2023-10-29T04:16:18.655Z,19.83
2023-10-29T04:18:45.242Z,22.23
2023-10-29T04:21:11.806Z,24.63
2023-10-29T04:23:38.360Z,18.80
2023-10-29T04:26:04.943Z,24.23
2023-10-29T04:28:31.462Z,27.35
2023-10-29T04:30:58.125Z,19.77
2023-10-29T04:33:25.201Z,20.40
2023-10-29T04:35:52.056Z,24.77
2023-10-29T04:38:18.533Z,20.08
2023-10-29T04:40:45.440Z,20.38
2023-10-29T04:43:11.981Z,15.05
2023-10-29T04:45:38.534Z,20.88
2023-10-29T04:48:05.378Z,20.13
2023-10-29T04:50:32.303Z,17.08
2023-10-29T04:52:59.438Z,23.95
2023-10-29T04:55:26.041Z,20.52
2023-10-29T04:57:52.518Z,18.73
2023-10-29T05:00:19.211Z,25.30
2023-10-29T05:02:45.831Z,17.42
2023-10-29T05:05:12.672Z,17.38
2023-10-29T05:07:39.243Z,17.75
2023-10-29T05:10:06.585Z,18.33
2023-10-29T05:12:33.121Z,14.77
2023-10-29T05:14:59.805Z,20.90
2023-10-29T05:17:26.308Z,18.55
2023-10-29T05:19:52.952Z,17.80
2023-10-29T05:22:19.452Z,20.85
2023-10-29T05:24:46.074Z,19.25
2023-10-29T05:27:12.631Z,15.73
2023-10-29T05:29:39.171Z,30.38
2023-10-29T05:32:06.488Z,21.77
2023-10-29T05:34:32.986Z,17.42
2023-10-29T05:36:59.520Z,15.02
2023-10-29T05:39:26.040Z,15.70
2023-10-29T05:41:52.551Z,20.65
2023-10-29T05:44:19.282Z,35.40
2023-10-29T05:46:45.846Z,36.33
2023-10-29T05:49:12.352Z,30.00
2023-10-29T05:51:39.687Z,17.65
2023-10-29T05:54:06.401Z,22.55
2023-10-29T05:56:32.951Z,20.67
2023-10-29T05:58:59.491Z,19.35
2023-10-29T06:01:26.257Z,16.38
2023-10-29T06:03:52.977Z,19.88
2023-10-29T06:06:20.715Z,21.25
2023-10-29T06:08:47.229Z,19.40
2023-10-29T06:11:13.785Z,21.52
2023-10-29T06:13:40.277Z,27.02
2023-10-29T06:16:10.302Z,21.25
2023-10-29T06:18:36.992Z,22.33
2023-10-29T06:21:04.434Z,21.35
2023-10-29T06:23:31.307Z,32.63
2023-10-29T06:25:57.988Z,28.70
2023-10-29T06:28:24.469Z,36.95
2023-10-29T06:30:51.053Z,24.63
2023-10-29T06:33:17.564Z,24.13
2023-10-29T06:35:44.186Z,24.15
2023-10-29T06:38:10.716Z,28.02
2023-10-29T06:40:37.175Z,21.17
2023-10-29T06:43:04.794Z,13.27
2023-10-29T06:45:31.363Z,18.58
2023-10-29T06:47:57.860Z,13.15
2023-10-29T06:50:24.503Z,16.52
2023-10-29T06:52:51.144Z,21.35
2023-10-29T06:55:17.658Z,17.98
2023-10-29T06:57:44.161Z,15.77
2023-10-29T07:00:11.833Z,17.05
2023-10-29T07:02:38.686Z,15.88
2023-10-29T07:05:05.620Z,17.77
2023-10-29T07:07:32.189Z,16.13
2023-10-29T07:09:58.681Z,20.35
2023-10-29T07:12:25.329Z,14.10
2023-10-29T07:14:52.193Z,15.75
2023-10-29T07:17:18.821Z,14.93
2023-10-29T07:19:45.460Z,16.70
2023-10-29T07:22:11.926Z,14.18
2023-10-29T07:24:39.103Z,15.18
2023-10-29T07:27:05.706Z,15.98
2023-10-29T07:29:32.428Z,11.75
2023-10-29T07:31:59.030Z,13.75
2023-10-29T07:34:25.552Z,16.25
2023-10-29T07:36:52.149Z,18.10
2023-10-29T07:39:18.784Z,16.00
2023-10-29T07:41:45.328Z,14.63
2023-10-29T07:44:12.406Z,20.05
2023-10-29T07:46:38.974Z,16.23
2023-10-29T07:49:05.534Z,14.77
2023-10-29T07:51:32.166Z,14.15
2023-10-29T07:54:00.825Z,16.05
2023-10-29T07:56:28.096Z,16.33
2023-10-29T07:58:54.813Z,18.75
2023-10-29T08:01:21.443Z,17.52
2023-10-29T08:03:49.751Z,16.60
2023-10-29T08:06:16.540Z,18.77
2023-10-29T08:08:43.147Z,16.73
2023-10-29T08:11:22.452Z,17.30
2023-10-29T08:13:49.547Z,18.02
2023-10-29T08:16:16.243Z,20.15
2023-10-29T08:18:42.922Z,21.33
2023-10-29T08:21:09.645Z,18.13
2023-10-29T08:23:36.615Z,19.83
2023-10-29T08:26:03.430Z,19.30
2023-10-29T08:28:31.093Z,20.38
2023-10-29T08:30:57.614Z,24.98
2023-10-29T08:33:24.225Z,20.58
2023-10-29T08:35:50.806Z,22.40
2023-10-29T08:38:17.294Z,21.70
2023-10-29T08:40:43.784Z,18.50
2023-10-29T08:43:10.363Z,19.40
2023-10-29T08:45:42.350Z,24.70
2023-10-29T08:48:09.706Z,23.77
2023-10-29T08:50:36.379Z,20.25
2023-10-29T08:53:02.998Z,21.30
2023-10-29T08:55:29.809Z,17.95
2023-10-29T08:57:56.328Z,18.65
2023-10-29T09:00:23.000Z,17.08
2023-10-29T09:02:49.670Z,14.57
2023-10-29T09:05:16.409Z,9.65
2023-10-29T09:07:43.014Z,12.52
2023-10-29T09:10:10.000Z,6.47
2023-10-29T09:12:36.614Z,8.50
2023-10-29T09:15:03.373Z,8.05
2023-10-29T09:17:30.089Z,10.90
2023-10-29T09:19:56.742Z,6.47
2023-10-29T09:22:23.257Z,8.45
2023-10-29T09:24:50.152Z,7.43
2023-10-29T09:27:16.706Z,6.97
2023-10-29T09:29:43.299Z,5.18
2023-10-29T09:32:09.910Z,5.55
2023-10-29T09:34:36.553Z,9.30
2023-10-29T09:37:03.081Z,7.65
2023-10-29T09:39:29.658Z,7.57
2023-10-29T09:42:02.505Z,9.18
2023-10-29T09:44:32.156Z,4.20
2023-10-29T09:47:14.115Z,5.57
2023-10-29T09:49:41.116Z,4.63
2023-10-29T09:52:09.198Z,4.95
2023-10-29T09:54:39.970Z,5.10
2023-10-29T09:57:07.559Z,5.97
2023-10-29T09:59:36.116Z,4.85
2023-10-29T10:02:03.741Z,5.90
2023-10-29T10:04:30.601Z,6.32
2023-10-29T10:06:59.883Z,4.70
2023-10-29T10:09:26.845Z,6.07
2023-10-29T10:12:05.462Z,4.72
2023-10-29T10:14:32.510Z,5.88
2023-10-29T10:17:11.928Z,3.95
2023-10-29T10:19:38.561Z,8.95
2023-10-29T10:22:05.468Z,5.47
2023-10-29T10:24:50.129Z,4.45
2023-10-29T10:27:16.777Z,7.30
2023-10-29T10:29:43.305Z,2.13
2023-10-29T10:32:10.128Z,3.35
2023-10-29T10:34:38.912Z,7.00
2023-10-29T10:37:05.682Z,2.70
2023-10-29T10:39:33.285Z,1.63
2023-10-29T10:42:01.815Z,4.13
2023-10-29T10:44:32.259Z,4.43
2023-10-29T10:47:03.619Z,2.63
2023-10-29T10:49:33.150Z,5.30
2023-10-29T10:52:02.632Z,3.60
2023-10-29T10:54:32.427Z,3.60
2023-10-29T10:57:00.618Z,5.57
2023-10-29T10:59:27.239Z,1.23
2023-10-29T11:01:54.975Z,2.53
2023-10-29T11:04:24.473Z,2.45
2023-10-29T11:06:52.873Z,8.00
2023-10-29T11:09:20.891Z,4.20
2023-10-29T11:11:54.493Z,3.72
2023-10-29T11:14:22.386Z,2.58
2023-10-29T11:17:07.929Z,2.85
2023-10-29T11:19:34.575Z,2.80
2023-10-29T11:22:16.061Z,4.45
2023-10-29T11:24:42.924Z,2.75
2023-10-29T11:27:37.707Z,2.25
2023-10-29T11:30:12.298Z,4.90
2023-10-29T11:32:40.117Z,3.20
2023-10-29T11:35:15.720Z,1.85
2023-10-29T11:37:45.800Z,4.80
2023-10-29T11:40:24.454Z,3.45
2023-10-29T11:42:54.330Z,5.25
2023-10-29T11:45:26.979Z,2.53
2023-10-29T11:48:11.250Z,2.42
2023-10-29T11:50:39.252Z,2.97
2023-10-29T11:53:06.213Z,3.58
2023-10-29T11:55:42.735Z,3.75
2023-10-29T11:58:09.351Z,1.45
2023-10-29T12:00:42.134Z,2.30
2023-10-29T12:03:15.177Z,3.25
2023-10-29T12:05:51.057Z,2.35
2023-10-29T12:10:51.514Z,2.67
2023-10-29T12:13:19.932Z,4.25
2023-10-29T12:15:48.280Z,2.83
2023-10-29T12:18:24.820Z,3.50
2023-10-29T12:20:52.019Z,2.13
2023-10-29T12:23:18.931Z,8.70
2023-10-29T12:25:45.851Z,4.85
2023-10-29T12:28:14.671Z,4.88
2023-10-29T12:30:43.373Z,2.17
2023-10-29T12:33:17.970Z,2.15
2023-10-29T12:35:46.850Z,4.13
2023-10-29T12:38:13.654Z,1.90
2023-10-29T12:41:00.789Z,4.00
2023-10-29T12:43:44.731Z,2.15
2023-10-29T12:46:20.632Z,3.72
2023-10-29T12:49:11.143Z,2.03
2023-10-29T12:51:44.530Z,2.03
2023-10-29T12:54:21.064Z,2.10
2023-10-29T12:56:53.655Z,2.85
2023-10-29T12:59:21.833Z,4.28
2023-10-29T13:01:53.559Z,1.83
2023-10-29T13:04:21.737Z,2.75
2023-10-29T13:06:48.270Z,1.95
2023-10-29T13:09:19.221Z,3.58
2023-10-29T13:11:49.614Z,2.35
2023-10-29T13:14:16.246Z,4.57
2023-10-29T13:16:42.932Z,2.22
2023-10-29T13:19:09.808Z,5.25
2023-10-29T13:21:36.341Z,4.68
2023-10-29T13:24:02.950Z,3.13
2023-10-29T13:26:29.506Z,2.83
2023-10-29T13:28:56.841Z,2.10
2023-10-29T13:31:23.983Z,2.90
2023-10-29T13:33:50.858Z,5.13
2023-10-29T13:36:17.611Z,3.05
2023-10-29T13:38:44.147Z,4.43
2023-10-29T13:41:13.190Z,3.10
2023-10-29T13:43:39.893Z,3.30
2023-10-29T13:46:06.517Z,2.70
2023-10-29T13:48:33.168Z,3.35
2023-10-29T13:51:06.004Z,4.30
2023-10-29T13:53:33.893Z,6.10
2023-10-29T13:56:10.555Z,4.32
2023-10-29T13:58:37.745Z,2.10
2023-10-29T14:01:04.512Z,1.80
2023-10-29T14:03:32.579Z,4.68
2023-10-29T14:05:59.251Z,2.70
2023-10-29T14:08:25.841Z,2.35
2023-10-29T14:10:52.344Z,4.25
2023-10-29T14:13:18.926Z,4.15
2023-10-29T14:15:45.453Z,3.40
2023-10-29T14:18:12.001Z,3.30
2023-10-29T14:20:39.379Z,5.93
2023-10-29T14:23:05.952Z,4.85
2023-10-29T14:25:32.543Z,5.10
2023-10-29T14:28:02.120Z,3.15
2023-10-29T14:30:29.188Z,3.15
2023-10-29T14:32:55.954Z,3.13
2023-10-29T14:35:22.781Z,2.63
2023-10-29T14:37:53.098Z,2.75
2023-10-29T14:40:20.784Z,5.10
2023-10-29T14:42:50.452Z,4.50
2023-10-29T14:45:18.135Z,3.28
2023-10-29T14:47:45.153Z,2.90
2023-10-29T14:50:13.468Z,4.35
2023-10-29T14:52:41.355Z,3.70
2023-10-29T14:55:09.960Z,4.32
2023-10-29T14:57:38.509Z,4.03
2023-10-29T15:00:07.165Z,5.03
2023-10-29T15:02:34.144Z,3.03
2023-10-29T15:05:00.698Z,2.90
2023-10-29T15:07:28.114Z,3.58
2023-10-29T15:09:54.652Z,2.50
2023-10-29T15:12:21.173Z,4.32
2023-10-29T15:14:50.866Z,3.13
2023-10-29T15:17:19.179Z,4.03
2023-10-29T15:19:50.934Z,4.88
2023-10-29T15:22:17.563Z,3.80
2023-10-29T15:24:44.059Z,4.60
2023-10-29T15:27:10.550Z,5.63
2023-10-29T15:29:37.152Z,3.90
2023-10-29T15:32:04.071Z,5.28
2023-10-29T15:34:33.719Z,3.45
2023-10-29T15:37:00.209Z,2.95
2023-10-29T15:39:28.602Z,3.40
2023-10-29T15:41:55.118Z,3.63
2023-10-29T15:44:21.597Z,2.70
2023-10-29T15:46:48.943Z,5.82
2023-10-29T15:49:15.464Z,3.35
2023-10-29T15:51:42.038Z,4.65
2023-10-29T15:54:08.529Z,3.47
2023-10-29T15:56:37.742Z,4.90
2023-10-29T15:59:08.692Z,5.03
2023-10-29T16:01:37.000Z,3.78
2023-10-29T16:04:03.962Z,2.85
2023-10-29T16:06:30.501Z,5.25
2023-10-29T16:08:57.080Z,4.75
2023-10-29T16:11:25.308Z,2.80
2023-10-29T16:13:51.885Z,4.13
2023-10-29T16:16:18.621Z,6.03
2023-10-29T16:18:45.238Z,3.08
2023-10-29T16:21:12.000Z,3.65
2023-10-29T16:23:38.701Z,2.53
2023-10-29T16:26:05.413Z,3.97
2023-10-29T16:28:31.973Z,4.22
2023-10-29T16:30:58.442Z,5.93
2023-10-29T16:33:25.102Z,6.28
2023-10-29T16:35:54.294Z,6.05
2023-10-29T16:38:20.776Z,8.63
2023-10-29T16:40:49.080Z,6.20
2023-10-29T16:43:15.529Z,4.32
2023-10-29T16:45:43.828Z,5.03
2023-10-29T16:48:10.419Z,4.20
2023-10-29T16:50:52.406Z,3.80
2023-10-29T16:53:26.702Z,3.75
2023-10-29T16:55:53.190Z,4.18
2023-10-29T16:58:19.752Z,5.03
2023-10-29T17:00:49.358Z,3.47
2023-10-29T17:03:16.011Z,4.05
2023-10-29T17:05:42.698Z,3.42
2023-10-29T17:08:09.536Z,2.88
2023-10-29T17:10:39.355Z,4.00
2023-10-29T17:13:06.101Z,3.80
2023-10-29T17:15:32.594Z,6.20
2023-10-29T17:17:59.096Z,4.30
2023-10-29T17:20:25.856Z,5.22
2023-10-29T17:22:53.278Z,3.65
2023-10-29T17:25:19.838Z,4.00
2023-10-29T17:27:46.685Z,3.15
2023-10-29T17:30:14.054Z,3.72
2023-10-29T17:32:40.634Z,3.05
2023-10-29T17:35:08.090Z,5.65
2023-10-29T17:37:34.669Z,3.45
2023-10-29T17:40:01.142Z,2.80
2023-10-29T17:42:30.444Z,6.32
2023-10-29T17:44:57.081Z,4.45
2023-10-29T17:47:23.731Z,2.25
2023-10-29T17:49:50.230Z,4.88
2023-10-29T17:52:16.747Z,3.28
2023-10-29T17:54:43.919Z,4.43
2023-10-29T17:57:10.515Z,3.70
2023-10-29T17:59:39.425Z,3.92
2023-10-29T18:02:06.494Z,5.55
2023-10-29T18:04:33.074Z,5.38
2023-10-29T18:07:00.266Z,6.18
2023-10-29T18:09:27.398Z,4.35
2023-10-29T18:11:56.897Z,9.60
2023-10-29T18:14:24.416Z,4.47
2023-10-29T18:16:51.730Z,4.75
2023-10-29T18:19:18.366Z,6.20
2023-10-29T18:21:45.396Z,6.32
2023-10-29T18:24:12.994Z,5.82
2023-10-29T18:26:40.280Z,8.13
2023-10-29T18:29:06.869Z,5.82
2023-10-29T18:31:33.328Z,5.47
2023-10-29T18:33:59.877Z,6.07
2023-10-29T18:36:27.897Z,3.78
2023-10-29T18:39:00.182Z,4.20
2023-10-29T18:41:26.876Z,6.05
2023-10-29T18:43:55.824Z,3.95
2023-10-29T18:46:22.422Z,3.22
2023-10-29T18:48:49.088Z,2.30
2023-10-29T18:51:17.713Z,3.33
2023-10-29T18:53:45.746Z,1.85
2023-10-29T18:56:12.301Z,3.63
2023-10-29T18:58:41.738Z,3.88
2023-10-29T19:01:10.679Z,4.20
2023-10-29T19:03:37.537Z,4.05
2023-10-29T19:06:09.263Z,4.28
2023-10-29T19:08:39.058Z,5.20
2023-10-29T19:11:06.263Z,3.17
2023-10-29T19:13:36.113Z,3.55
2023-10-29T19:16:04.955Z,4.38
2023-10-29T19:18:32.248Z,5.15
2023-10-29T19:20:59.346Z,6.60
2023-10-29T19:23:26.293Z,3.17
2023-10-29T19:25:53.174Z,3.00
2023-10-29T19:28:19.714Z,4.63
2023-10-29T19:31:04.830Z,5.40
2023-10-29T19:33:34.065Z,4.47
2023-10-29T19:36:00.671Z,3.50
2023-10-29T19:38:27.315Z,3.30
2023-10-29T19:40:59.054Z,5.07
2023-10-29T19:43:25.687Z,3.15
2023-10-29T19:45:57.048Z,4.65
2023-10-29T19:48:24.918Z,5.10
2023-10-29T19:50:59.235Z,3.20
2023-10-29T19:53:30.176Z,3.80
2023-10-29T19:55:57.486Z,5.43
2023-10-29T19:58:24.680Z,4.47
2023-10-29T20:00:51.853Z,7.05
2023-10-29T20:03:19.076Z,4.47
2023-10-29T20:05:46.022Z,4.85
2023-10-29T20:08:12.760Z,3.83
2023-10-29T20:10:40.875Z,3.63
2023-10-29T20:13:07.690Z,3.83
2023-10-29T20:15:35.345Z,4.43
2023-10-29T20:18:03.027Z,3.20
2023-10-29T20:20:30.714Z,5.00
2023-10-29T20:22:58.105Z,3.85
2023-10-29T20:25:28.891Z,3.33
2023-10-29T20:27:56.108Z,5.25
2023-10-29T20:30:24.325Z,4.72
2023-10-29T20:32:51.465Z,4.97
2023-10-29T20:35:18.593Z,5.13
2023-10-29T20:37:45.154Z,4.90
2023-10-29T20:40:12.735Z,3.22
2023-10-29T20:42:39.243Z,5.00
2023-10-29T20:45:06.417Z,3.97
2023-10-29T20:47:32.945Z,6.07
2023-10-29T20:49:59.443Z,3.42
2023-10-29T20:52:26.014Z,5.03
2023-10-29T20:54:52.622Z,3.78
2023-10-29T20:57:19.228Z,2.75
2023-10-29T20:59:45.865Z,4.50
2023-10-29T21:02:12.475Z,3.15
2023-10-29T21:04:39.035Z,3.38
2023-10-29T21:07:05.608Z,4.63
2023-10-29T21:09:32.238Z,5.70
2023-10-29T21:11:58.894Z,3.42
2023-10-29T21:14:25.427Z,3.22
2023-10-29T21:16:51.875Z,4.80
2023-10-29T21:19:19.979Z,3.75
2023-10-29T21:21:48.506Z,2.67
2023-10-29T21:24:15.288Z,3.42
2023-10-29T21:26:41.860Z,1.85
2023-10-29T21:29:08.388Z,2.60
2023-10-29T21:31:34.916Z,3.55
2023-10-29T21:34:01.385Z,3.22
2023-10-29T21:36:27.968Z,3.75
2023-10-29T21:38:54.487Z,3.70
2023-10-29T21:41:23.340Z,3.33
2023-10-29T21:43:49.932Z,2.67
2023-10-29T21:46:16.541Z,5.95
2023-10-29T21:48:43.090Z,3.53
2023-10-29T21:51:09.669Z,1.75
2023-10-29T21:53:36.389Z,2.22
2023-10-29T21:56:06.119Z,2.17
2023-10-29T21:58:33.118Z,3.97
2023-10-29T22:00:59.689Z,2.13
2023-10-29T22:03:26.994Z,2.05
2023-10-29T22:06:00.685Z,5.05
2023-10-29T22:08:28.904Z,2.60
2023-10-29T22:10:59.462Z,2.95
2023-10-29T22:13:27.022Z,4.75
2023-10-29T22:15:54.061Z,2.55
2023-10-29T22:18:21.747Z,2.50
2023-10-29T22:20:48.654Z,3.10
2023-10-29T22:23:15.251Z,8.15
2023-10-29T22:25:41.782Z,3.35
2023-10-29T22:28:08.516Z,3.47
2023-10-29T22:30:36.552Z,3.13
2023-10-29T22:33:03.169Z,2.03
2023-10-29T22:35:29.745Z,1.80
2023-10-29T22:37:56.343Z,2.17
2023-10-29T22:40:22.835Z,2.55
2023-10-29T22:42:49.887Z,2.75
2023-10-29T22:45:17.157Z,3.42
2023-10-29T22:47:44.729Z,3.38
2023-10-29T22:50:11.365Z,1.70
2023-10-29T22:52:37.881Z,3.40
2023-10-29T22:55:04.833Z,2.80
2023-10-29T22:57:31.580Z,3.17
2023-10-29T22:59:58.200Z,2.65
2023-10-29T23:02:26.597Z,3.30
2023-10-29T23:04:55.190Z,2.50
2023-10-29T23:07:21.860Z,4.32
2023-10-29T23:09:48.511Z,2.20
2023-10-29T23:12:15.223Z,3.22
2023-10-29T23:14:41.804Z,3.55
2023-10-29T23:17:08.303Z,2.95
2023-10-29T23:19:35.209Z,4.57
2023-10-29T23:22:02.007Z,2.33
2023-10-29T23:24:28.535Z,2.00
2023-10-29T23:26:55.018Z,5.20
2023-10-29T23:29:21.482Z,3.75
2023-10-29T23:31:48.082Z,1.73
2023-10-29T23:34:14.739Z,4.05
2023-10-29T23:36:41.299Z,3.25
2023-10-29T23:39:07.838Z,2.67
2023-10-29T23:41:34.360Z,2.42
2023-10-29T23:44:00.812Z,1.80
2023-10-29T23:46:27.341Z,1.55
2023-10-29T23:48:53.894Z,3.42
2023-10-29T23:51:20.382Z,2.60
2023-10-29T23:53:46.936Z,2.78
2023-10-29T23:56:13.640Z,1.67
2023-10-29T23:58:40.088Z,2.70
